Time;durP1;ratioP1;P1;durP2;ratioP2;P2;SDS_P1;SDS_P2;PMS_P1;PMS_P2;Temp;Humidity;BMP_temperature;BMP_pressure;BME280_temperature;BME280_humidity;BME280_pressure;Samples;Min_cycle;Max_cycle;Signal;HPM_P1;HPM_P2
2021/09/03 00:00:18;;;;;;;;;;;;;;;20.57;60.62;102189.81;4995105;28;993;-61
2021/09/03 00:02:43;;;;;;;;;;;;;;;20.57;60.97;102192.53;4994768;28;1855;-61
2021/09/03 00:05:08;;;;;;;;;;;;;;;20.56;61.23;102193.53;4994888;28;1009;-61
2021/09/03 00:07:33;;;;;;;;;;;;;;;20.54;61.03;102195.50;4994488;28;1971;-61
2021/09/03 00:09:58;;;;;;;;;;;;;;;20.54;61.31;102190.06;4995212;28;1053;-61
2021/09/03 00:12:23;;;;;;;;;;;;;;;20.54;61.03;102190.94;4994952;28;1703;-61
2021/09/03 00:14:48;;;;;;;;;;;;;;;20.53;61.24;102182.94;4977368;28;1243;-62
2021/09/03 00:17:14;;;;;;;;;;;;;;;20.51;60.72;102185.78;4994801;28;799;-62
2021/09/03 00:19:39;;;;;;;;;;;;;;;20.51;60.88;102185.78;4994878;28;1057;-62
2021/09/03 00:22:04;;;;;;;;;;;;;;;20.50;60.73;102180.50;4994565;28;1845;-62
2021/09/03 00:24:29;;;;;;;;;;;;;;;20.50;61.22;102172.38;4993408;28;1843;-61
2021/09/03 00:26:54;;;;;;;;;;;;;;;20.47;61.16;102168.06;4994674;28;1902;-61
2021/09/03 00:29:19;;;;;;;;;;;;;;;20.47;61.29;102169.91;4994881;28;1068;-61
2021/09/03 00:31:44;;;;;;;;;;;;;;;20.47;60.44;102169.91;4994638;28;1671;-62
2021/09/03 00:34:09;;;;;;;;;;;;;;;20.45;60.87;102170.91;4994864;28;1068;-61
2021/09/03 00:36:34;;;;;;;;;;;;;;;20.44;60.51;102158.34;4996814;28;965;-61
2021/09/03 00:38:59;;;;;;;;;;;;;;;20.44;60.69;102169.19;4998046;28;1017;-63
2021/09/03 00:41:24;;;;;;;;;;;;;;;20.43;60.92;102167.47;4998181;28;1073;-63
2021/09/03 00:43:49;;;;;;;;;;;;;;;20.43;61.10;102164.75;4997908;28;1961;-63
2021/09/03 00:46:15;;;;;;;;;;;;;;;20.42;61.34;102171.16;4998181;28;1006;-63
2021/09/03 00:48:40;;;;;;;;;;;;;;;20.42;61.36;102165.75;4998098;28;1969;-62
2021/09/03 00:51:05;;;;;;;;;;;;;;;20.41;60.82;102163.19;4998713;28;898;-63
2021/09/03 00:53:30;;;;;;;;;;;;;;;20.40;61.17;102165.03;4997826;28;859;-62
2021/09/03 00:55:55;;;;;;;;;;;;;;;20.40;61.04;102154.22;4997976;28;1961;-63
2021/09/03 00:58:21;;;;;;;;;;;;;;;20.39;60.43;102159.75;4997831;28;1072;-63
2021/09/03 01:00:46;;;;;;;;;;;;;;;20.37;61.30;102150.91;4998057;28;756;-63
2021/09/03 01:03:11;;;;;;;;;;;;;;;20.36;60.70;102154.56;4997823;28;799;-63
2021/09/03 01:05:36;;;;;;;;;;;;;;;20.36;60.89;102150.03;4997580;28;1002;-64
2021/09/03 01:08:01;;;;;;;;;;;;;;;20.36;60.45;102138.31;4997305;28;1977;-64
2021/09/03 01:10:27;;;;;;;;;;;;;;;20.34;60.41;102140.28;4997832;28;866;-65
2021/09/03 01:12:52;;;;;;;;;;;;;;;20.34;60.89;102143.00;4997595;28;792;-64
2021/09/03 01:15:17;;;;;;;;;;;;;;;20.31;60.12;102130.59;4997306;28;1813;-64
2021/09/03 01:17:42;;;;;;;;;;;;;;;20.32;61.06;102132.31;4997196;28;1858;-64
2021/09/03 01:20:07;;;;;;;;;;;;;;;20.31;60.56;102124.31;4997587;28;1017;-65
2021/09/03 01:22:32;;;;;;;;;;;;;;;20.30;60.43;102123.44;4997373;28;930;-64
2021/09/03 01:24:57;;;;;;;;;;;;;;;20.29;60.85;102118.16;4997148;28;1846;-65
2021/09/03 01:27:22;;;;;;;;;;;;;;;20.29;60.50;102120.88;4997303;28;1998;-63
2021/09/03 01:29:47;;;;;;;;;;;;;;;20.28;60.86;102120.00;4997224;28;855;-62
2021/09/03 01:32:12;;;;;;;;;;;;;;;20.27;60.93;102122.84;4997373;28;1069;-62
2021/09/03 01:34:37;;;;;;;;;;;;;;;20.27;60.86;102121.00;4997303;28;910;-62
2021/09/03 01:37:03;;;;;;;;;;;;;;;20.25;61.45;102120.28;4997075;28;1979;-63
2021/09/03 01:39:28;;;;;;;;;;;;;;;20.25;61.00;102122.13;4996966;28;1061;-62
2021/09/03 01:41:53;;;;;;;;;;;;;;;20.25;60.74;102122.97;4996866;28;855;-60
2021/09/03 01:44:18;;;;;;;;;;;;;;;20.24;60.33;102110.47;4996163;28;1579;-61
2021/09/03 01:46:43;;;;;;;;;;;;;;;20.22;60.68;102120.56;4996653;28;1967;-61
2021/09/03 01:49:08;;;;;;;;;;;;;;;20.21;61.25;102113.44;4996194;28;1965;-61
2021/09/03 01:51:33;;;;;;;;;;;;;;;20.21;60.69;102118.84;4996939;28;804;-61
2021/09/03 01:53:58;;;;;;;;;;;;;;;20.19;60.65;102110.00;4996639;28;1053;-61
2021/09/03 01:56:24;;;;;;;;;;;;;;;20.19;60.70;102109.13;4996899;28;1247;-61
2021/09/03 01:58:49;;;;;;;;;;;;;;;20.18;60.86;102108.28;4997007;28;1045;-61
2021/09/03 02:01:14;;;;;;;;;;;;;;;20.17;60.73;102106.56;4996326;28;1840;-61
2021/09/03 02:03:39;;;;;;;;;;;;;;;20.18;60.45;102102.84;4996862;28;899;-61
2021/09/03 02:06:04;;;;;;;;;;;;;;;20.18;60.97;102108.28;4996523;28;1021;-63
2021/09/03 02:08:30;;;;;;;;;;;;;;;20.16;60.98;102104.84;4996351;28;1906;-64
2021/09/03 02:10:55;;;;;;;;;;;;;;;20.16;60.88;102104.84;4996807;28;792;-63
2021/09/03 02:13:21;;;;;;;;;;;;;;;20.14;61.01;102100.53;4996176;28;1886;-63
2021/09/03 02:15:46;;;;;;;;;;;;;;;20.13;60.14;102091.56;4996539;28;784;-63
2021/09/03 02:18:11;;;;;;;;;;;;;;;20.12;61.29;102095.25;4996497;28;894;-63
2021/09/03 02:20:36;;;;;;;;;;;;;;;20.10;60.74;102087.25;4996057;28;1864;-63
2021/09/03 02:23:01;;;;;;;;;;;;;;;20.10;60.71;102097.22;4978730;28;1061;-64
2021/09/03 02:25:26;;;;;;;;;;;;;;;20.12;61.26;102089.84;4996367;28;898;-63
2021/09/03 02:27:51;;;;;;;;;;;;;;;20.10;61.12;102089.97;4995804;28;1890;-62
2021/09/03 02:30:16;;;;;;;;;;;;;;;20.09;60.68;102087.38;4995977;28;1833;-62
2021/09/03 02:32:41;;;;;;;;;;;;;;;20.08;60.66;102082.97;4994696;28;699;-62
2021/09/03 02:35:06;;;;;;;;;;;;;;;20.05;60.31;102077.84;4996141;28;1081;-62
2021/09/03 02:37:31;;;;;;;;;;;;;;;20.07;61.20;102079.41;4995761;28;1770;-64
2021/09/03 02:39:56;;;;;;;;;;;;;;;20.09;60.38;102081.97;4995917;28;1048;-63
2021/09/03 02:42:22;;;;;;;;;;;;;;;20.05;60.89;102076.00;4995681;28;1227;-63
2021/09/03 02:44:47;;;;;;;;;;;;;;;20.06;60.27;102079.56;4995992;28;986;-63
2021/09/03 02:47:12;;;;;;;;;;;;;;;20.05;61.43;102067.00;4995864;28;1949;-63
2021/09/03 02:49:38;;;;;;;;;;;;;;;20.03;60.85;102067.13;4995511;28;1796;-63
2021/09/03 02:52:03;;;;;;;;;;;;;;;20.01;60.59;102070.97;4995564;28;1857;-60
2021/09/03 02:54:28;;;;;;;;;;;;;;;20.00;60.65;102061.97;4995601;28;1074;-60
2021/09/03 02:56:53;;;;;;;;;;;;;;;20.03;61.05;102066.28;4995181;28;1010;-62
2021/09/03 02:59:18;;;;;;;;;;;;;;;19.98;60.65;102063.97;4994567;28;1959;-62
2021/09/03 03:01:43;;;;;;;;;;;;;;;19.98;60.89;102058.56;4994956;28;788;-62
2021/09/03 03:04:08;;;;;;;;;;;;;;;19.97;61.11;102061.38;4994924;28;1006;-63
2021/09/03 03:06:33;;;;;;;;;;;;;;;19.96;60.42;102059.66;4994847;28;1006;-63
2021/09/03 03:08:59;;;;;;;;;;;;;;;19.97;61.41;102064.94;4994342;28;1910;-63
2021/09/03 03:11:24;;;;;;;;;;;;;;;19.95;60.91;102057.94;4994573;28;997;-62
2021/09/03 03:13:56;;;;;;;;;;;;;;;19.95;61.32;102060.66;4994562;28;1030;-62
2021/09/03 03:16:21;;;;;;;;;;;;;;;19.94;60.96;102056.22;4994879;28;1781;-62
2021/09/03 03:18:46;;;;;;;;;;;;;;;19.92;61.05;102042.81;4994541;28;827;-62
2021/09/03 03:21:11;;;;;;;;;;;;;;;19.94;61.12;102050.81;4994501;28;1018;-62
2021/09/03 03:23:36;;;;;;;;;;;;;;;19.91;61.29;102043.81;4995184;28;1008;-65
2021/09/03 03:26:02;;;;;;;;;;;;;;;19.91;60.72;102038.41;4994458;28;1823;-65
2021/09/03 03:28:27;;;;;;;;;;;;;;;19.90;60.11;102038.53;4994289;28;1891;-65
2021/09/03 03:30:52;;;;;;;;;;;;;;;19.89;60.48;102026.84;4994460;28;1034;-64
2021/09/03 03:33:17;;;;;;;;;;;;;;;19.88;60.78;102024.31;4994587;28;820;-65
2021/09/03 03:35:42;;;;;;;;;;;;;;;19.87;60.78;102023.44;4994425;28;1769;-65
2021/09/03 03:38:07;;;;;;;;;;;;;;;19.86;60.44;102023.56;4994364;28;1851;-65
2021/09/03 03:40:32;;;;;;;;;;;;;;;19.87;61.02;102025.28;4994457;28;819;-62
2021/09/03 03:42:58;;;;;;;;;;;;;;;19.86;60.65;102023.56;4994229;28;823;-62
2021/09/03 03:45:23;;;;;;;;;;;;;;;19.86;60.44;102016.31;4994468;28;1060;-62
2021/09/03 03:47:48;;;;;;;;;;;;;;;19.85;60.73;102019.16;4994125;28;1954;-62
2021/09/03 03:50:13;;;;;;;;;;;;;;;19.83;60.99;102021.13;4994193;28;1896;-62
2021/09/03 03:52:38;;;;;;;;;;;;;;;19.84;60.57;102028.25;4994342;28;855;-62
2021/09/03 03:55:03;;;;;;;;;;;;;;;19.83;61.29;102023.84;4957738;28;1017668;-62
2021/09/03 03:57:28;;;;;;;;;;;;;;;19.82;60.79;102025.69;4994902;28;1010;-62
2021/09/03 03:59:53;;;;;;;;;;;;;;;19.82;61.13;102031.09;4995119;28;1022;-62
2021/09/03 04:02:18;;;;;;;;;;;;;;;19.81;60.99;102025.81;4995180;28;926;-62
2021/09/03 04:04:43;;;;;;;;;;;;;;;19.81;61.63;102017.69;4994870;28;1663;-62
2021/09/03 04:07:08;;;;;;;;;;;;;;;19.81;61.01;102013.13;4994543;28;1911;-62
2021/09/03 04:09:34;;;;;;;;;;;;;;;19.79;60.67;102015.09;4994805;28;946;-62
2021/09/03 04:11:59;;;;;;;;;;;;;;;19.76;61.05;102013.53;4997905;28;1079;-62
2021/09/03 04:14:24;;;;;;;;;;;;;;;19.77;60.91;102012.53;4998594;28;1632;-62
2021/09/03 04:16:49;;;;;;;;;;;;;;;19.79;61.46;102008.84;4998694;28;795;-62
2021/09/03 04:19:14;;;;;;;;;;;;;;;19.76;60.36;102009.97;4998725;28;961;-62
2021/09/03 04:21:39;;;;;;;;;;;;;;;19.75;60.67;102011.81;4998633;28;519;-63
2021/09/03 04:24:04;;;;;;;;;;;;;;;19.76;61.03;102013.53;4998276;28;1860;-62
2021/09/03 04:26:29;;;;;;;;;;;;;;;19.73;60.77;102008.38;4998820;28;895;-62
2021/09/03 04:28:54;;;;;;;;;;;;;;;19.72;61.07;102006.66;4998655;28;1976;-62
2021/09/03 04:31:19;;;;;;;;;;;;;;;19.73;60.87;102016.47;4998460;28;978;-63
2021/09/03 04:33:44;;;;;;;;;;;;;;;19.72;60.70;102014.75;4998441;28;827;-63
2021/09/03 04:36:09;;;;;;;;;;;;;;;19.71;61.41;102007.63;4998288;28;1750;-63
2021/09/03 04:38:34;;;;;;;;;;;;;;;19.71;60.60;102018.44;4998136;28;1914;-63
2021/09/03 04:41:00;;;;;;;;;;;;;;;19.69;61.33;102009.63;4997350;28;1227;-62
2021/09/03 04:43:25;;;;;;;;;;;;;;;19.69;61.43;102009.63;4998439;28;803;-62
2021/09/03 04:45:50;;;;;;;;;;;;;;;19.68;61.40;102005.22;4997476;28;1210;-62
2021/09/03 04:48:15;;;;;;;;;;;;;;;19.68;61.23;102013.34;4996872;28;1999;-64
2021/09/03 04:50:40;;;;;;;;;;;;;;;19.68;60.39;102007.06;4994946;28;2016;-61
2021/09/03 04:53:05;;;;;;;;;;;;;;;19.67;61.51;102008.91;4998727;28;1057;-60
2021/09/03 04:55:30;;;;;;;;;;;;;;;19.71;61.20;102004.94;4997322;28;1396;-61
2021/09/03 04:57:55;;;;;;;;;;;;;;;19.74;61.69;102012.78;4997455;28;1575;-61
2021/09/03 05:00:22;;;;;;;;;;;;;;;19.74;62.74;102012.78;4997651;28;1724;-63
2021/09/03 05:02:48;;;;;;;;;;;;;;;19.73;61.84;102008.38;4998547;28;898;-62
2021/09/03 05:05:13;;;;;;;;;;;;;;;19.74;62.40;102006.53;4996712;28;857;-63
2021/09/03 05:07:38;;;;;;;;;;;;;;;19.74;61.92;102001.97;4997937;28;1918;-64
2021/09/03 05:10:03;;;;;;;;;;;;;;;19.72;62.09;102009.34;4997610;28;1551;-62
2021/09/03 05:12:28;;;;;;;;;;;;;;;19.71;62.67;102006.78;4998058;28;2107;-64
2021/09/03 05:14:53;;;;;;;;;;;;;;;19.71;62.77;102013.03;4997291;28;1274;-63
2021/09/03 05:17:18;;;;;;;;;;;;;;;19.72;62.78;102009.34;4997163;28;1409;-63
2021/09/03 05:19:44;;;;;;;;;;;;;;;19.71;62.39;102010.34;4996992;28;1679;-63
2021/09/03 05:22:09;;;;;;;;;;;;;;;19.68;62.97;101997.09;4997050;28;1498;-63
2021/09/03 05:24:34;;;;;;;;;;;;;;;19.69;63.08;102004.22;4997006;28;1377;-63
2021/09/03 05:26:59;;;;;;;;;;;;;;;19.69;63.06;102003.38;4996890;28;1969;-63
2021/09/03 05:29:24;;;;;;;;;;;;;;;19.70;62.75;102005.09;4996944;28;1619;-63
2021/09/03 05:31:49;;;;;;;;;;;;;;;19.71;62.49;102013.03;4997013;28;1398;-63
2021/09/03 05:34:14;;;;;;;;;;;;;;;19.69;63.33;102000.66;4996739;28;1617;-64
2021/09/03 05:36:39;;;;;;;;;;;;;;;19.67;62.59;102011.63;4997173;28;1511;-63
2021/09/03 05:39:04;;;;;;;;;;;;;;;19.67;62.32;102014.31;4997523;28;1956;-63
2021/09/03 05:41:29;;;;;;;;;;;;;;;19.66;61.77;102012.59;4997245;28;1885;-63
2021/09/03 05:43:54;;;;;;;;;;;;;;;19.65;61.94;102004.63;4997617;28;813;-63
2021/09/03 05:46:19;;;;;;;;;;;;;;;19.64;62.16;102003.75;4996720;28;1258;-63
2021/09/03 05:48:44;;;;;;;;;;;;;;;19.63;61.77;102007.44;4996463;28;1886;-63
2021/09/03 05:51:10;;;;;;;;;;;;;;;19.64;61.91;102003.75;4996573;28;1442;-63
2021/09/03 05:53:35;;;;;;;;;;;;;;;19.63;62.22;102002.03;4997122;28;1519;-63
2021/09/03 05:56:00;;;;;;;;;;;;;;;19.64;62.57;102000.19;4996732;28;1437;-63
2021/09/03 05:58:25;;;;;;;;;;;;;;;19.63;62.16;101998.47;4996343;28;1649;-63
2021/09/03 06:00:50;;;;;;;;;;;;;;;19.64;61.90;101997.50;4996105;28;1434;-63
2021/09/03 06:03:15;;;;;;;;;;;;;;;19.64;62.19;101994.78;4996177;28;1374;-63
2021/09/03 06:05:40;;;;;;;;;;;;;;;19.64;62.36;101998.34;4997115;28;997;-63
2021/09/03 06:08:05;;;;;;;;;;;;;;;19.62;62.07;101989.50;4996569;28;1964;-63
2021/09/03 06:10:30;;;;;;;;;;;;;;;19.62;62.50;101994.91;4996636;28;1829;-63
2021/09/03 06:12:55;;;;;;;;;;;;;;;19.58;63.19;101990.75;4996671;28;816;-63
2021/09/03 06:15:20;;;;;;;;;;;;;;;19.59;63.56;101984.34;4996862;28;899;-63
2021/09/03 06:17:46;;;;;;;;;;;;;;;19.62;63.05;101997.63;4996932;28;1964;-63
2021/09/03 06:20:11;;;;;;;;;;;;;;;19.61;62.25;101993.19;4996344;28;836;-63
2021/09/03 06:22:36;;;;;;;;;;;;;;;19.64;62.56;101992.94;4996925;28;1010;-63
2021/09/03 06:25:01;;;;;;;;;;;;;;;19.61;62.68;101990.50;4996235;28;882;-63
2021/09/03 06:27:26;;;;;;;;;;;;;;;19.61;63.09;101995.91;4996025;28;1894;-63
2021/09/03 06:29:53;;;;;;;;;;;;;;;19.62;62.37;101986.78;4995846;28;1881;-63
2021/09/03 06:32:18;;;;;;;;;;;;;;;19.63;62.78;101991.22;4996079;28;957;-63
2021/09/03 06:34:43;;;;;;;;;;;;;;;19.62;62.18;102003.03;4995792;28;1056;-63
2021/09/03 06:37:08;;;;;;;;;;;;;;;19.63;63.00;102001.19;4995902;28;1863;-63
2021/09/03 06:39:33;;;;;;;;;;;;;;;19.65;63.03;102004.63;4995858;28;863;-63
2021/09/03 06:41:58;;;;;;;;;;;;;;;19.63;62.49;102004.75;4995687;28;938;-63
2021/09/03 06:44:24;;;;;;;;;;;;;;;19.61;63.23;102001.31;4995859;28;866;-63
2021/09/03 06:46:49;;;;;;;;;;;;;;;19.62;63.00;102019.25;4995620;28;1836;-63
2021/09/03 06:49:14;;;;;;;;;;;;;;;19.60;62.81;102005.00;4995594;28;1966;-63
2021/09/03 06:51:39;;;;;;;;;;;;;;;19.61;62.39;102000.44;4995527;28;1002;-63
2021/09/03 06:54:04;;;;;;;;;;;;;;;19.59;62.25;102005.13;4995364;28;1488;-63
2021/09/03 06:56:29;;;;;;;;;;;;;;;19.65;61.91;102010.03;4994559;28;1646;-65
2021/09/03 06:58:54;;;;;;;;;;;;;;;19.68;61.80;102007.91;4991646;28;1938;-64
2021/09/03 07:01:19;;;;;;;;;;;;;;;19.69;62.40;102004.22;5019190;22;1998;-63
2021/09/03 07:03:45;;;;;;;;;;;;;;;19.67;62.67;102006.22;5015102;28;1714;-63
2021/09/03 07:06:10;;;;;;;;;;;;;;;19.67;62.30;102005.34;5015181;28;1551;-67
2021/09/03 07:08:35;;;;;;;;;;;;;;;19.63;62.51;102003.88;5014347;28;1964;-68
2021/09/03 07:11:00;;;;;;;;;;;;;;;19.67;62.73;101999.94;5014647;28;1728;-68
2021/09/03 07:13:25;;;;;;;;;;;;;;;19.72;62.96;101995.81;5030219;28;1541;-67
2021/09/03 07:15:50;;;;;;;;;;;;;;;19.76;62.69;101993.72;5015466;28;1848;-64
2021/09/03 07:18:15;;;;;;;;;;;;;;;19.77;62.67;101992.75;5030821;28;1239;-66
2021/09/03 07:20:40;;;;;;;;;;;;;;;19.80;63.27;101994.31;5022443;28;1607;-67
2021/09/03 07:23:05;;;;;;;;;;;;;;;19.77;62.47;101999.00;5015153;28;939;-65
2021/09/03 07:25:31;;;;;;;;;;;;;;;19.72;62.44;102003.09;5031521;28;1591;-67
2021/09/03 07:27:56;;;;;;;;;;;;;;;19.73;62.51;101994.84;5014926;28;1890;-65
2021/09/03 07:30:21;;;;;;;;;;;;;;;19.72;62.63;101993.13;5018668;28;1726;-66
2021/09/03 07:32:47;;;;;;;;;;;;;;;19.76;62.90;101994.59;5020965;28;1929;-66
2021/09/03 07:35:12;;;;;;;;;;;;;;;19.69;63.16;101993.41;5013308;28;1552;-68
2021/09/03 07:37:37;;;;;;;;;;;;;;;19.71;63.38;101987.84;5015785;28;1713;-68
2021/09/03 07:40:02;;;;;;;;;;;;;;;19.68;62.62;101998.94;5018578;28;1476;-68
2021/09/03 07:42:27;;;;;;;;;;;;;;;19.73;63.16;102002.09;5025019;28;1152;-65
2021/09/03 07:44:52;;;;;;;;;;;;;;;19.72;62.90;101994.97;5014437;28;1307;-63
2021/09/03 07:47:17;;;;;;;;;;;;;;;19.75;62.84;101995.56;5017932;28;1949;-63
2021/09/03 07:49:42;;;;;;;;;;;;;;;19.76;62.97;102004.53;5015389;28;1465;-64
2021/09/03 07:52:07;;;;;;;;;;;;;;;19.79;63.42;101988.06;5018162;28;1747;-65
2021/09/03 07:54:32;;;;;;;;;;;;;;;19.80;63.33;101989.78;5015033;28;1248;-67
2021/09/03 07:56:58;;;;;;;;;;;;;;;19.79;62.78;101987.19;5018365;28;1281;-71
2021/09/03 07:59:23;;;;;;;;;;;;;;;19.77;63.09;101982.78;5017728;28;1261;-66
2021/09/03 08:01:48;;;;;;;;;;;;;;;19.80;63.07;101980.81;5019162;28;1482;-69
2021/09/03 08:04:14;;;;;;;;;;;;;;;19.83;62.59;101978.69;5019743;28;1363;-67
2021/09/03 08:06:40;;;;;;;;;;;;;;;19.85;63.49;101976.72;5020077;28;1249;-68
2021/09/03 08:09:05;;;;;;;;;;;;;;;19.84;63.04;101972.31;5023169;28;1975;-66
2021/09/03 08:11:30;;;;;;;;;;;;;;;19.84;62.82;101979.56;5027770;28;1746;-64
2021/09/03 08:13:55;;;;;;;;;;;;;;;19.89;63.31;101977.28;5028392;28;1292;-63
2021/09/03 08:16:20;;;;;;;;;;;;;;;19.88;62.32;101983.72;5029461;28;1340;-63
2021/09/03 08:18:45;;;;;;;;;;;;;;;19.84;63.09;101980.41;5022651;28;1277;-64
2021/09/03 08:21:10;;;;;;;;;;;;;;;19.86;62.55;101981.16;5026697;28;1591;-68
2021/09/03 08:23:35;;;;;;;;;;;;;;;19.87;62.52;101982.88;5032175;28;1340;-68
2021/09/03 08:26:00;;;;;;;;;;;;;;;19.89;62.16;101977.28;5026784;28;1335;-67
2021/09/03 08:28:26;;;;;;;;;;;;;;;19.87;62.53;101976.59;5025084;28;1944;-68
2021/09/03 08:30:51;;;;;;;;;;;;;;;19.90;62.11;101982.56;5024659;28;1437;-66
2021/09/03 08:33:16;;;;;;;;;;;;;;;19.92;62.47;101987.84;5032638;28;1399;-65
2021/09/03 08:35:41;;;;;;;;;;;;;;;19.97;62.85;101985.63;5019979;28;1243;-64
2021/09/03 08:38:06;;;;;;;;;;;;;;;19.96;62.93;101992.88;5027402;28;1202;-65
2021/09/03 08:40:31;;;;;;;;;;;;;;;19.95;62.62;101987.59;5023857;28;1475;-65
2021/09/03 08:42:56;;;;;;;;;;;;;;;19.89;63.38;101982.69;5033678;28;1365;-64
2021/09/03 08:45:21;;;;;;;;;;;;;;;19.99;64.34;101989.06;5021016;28;1325;-63
2021/09/03 08:47:46;;;;;;;;;;;;;;;20.01;64.77;101992.50;5030202;28;1918;-64
2021/09/03 08:50:11;;;;;;;;;;;;;;;19.93;64.33;101989.56;5024755;28;1535;-67
2021/09/03 08:52:36;;;;;;;;;;;;;;;19.94;64.83;101988.59;5021883;28;1516;-65
2021/09/03 08:55:01;;;;;;;;;;;;;;;19.87;64.77;101987.41;5022716;28;1254;-66
2021/09/03 08:57:27;;;;;;;;;;;;;;;19.81;65.33;101987.94;5025722;28;1290;-63
2021/09/03 08:59:52;;;;;;;;;;;;;;;19.85;66.46;101992.09;5026940;28;1337;-62
2021/09/03 09:02:17;;;;;;;;;;;;;;;19.97;65.77;101985.63;5021428;28;1867;-66
2021/09/03 09:04:42;;;;;;;;;;;;;;;20.00;65.33;101982.66;5036362;28;1686;-68
2021/09/03 09:07:07;;;;;;;;;;;;;;;20.03;66.34;101988.66;5037580;28;1906;-68
2021/09/03 09:09:32;;;;;;;;;;;;;;;19.93;65.82;101989.56;5024323;28;1873;-67
2021/09/03 09:11:57;;;;;;;;;;;;;;;20.05;66.03;101983.13;5016093;28;875;-63
2021/09/03 09:14:22;;;;;;;;;;;;;;;20.09;66.09;101987.25;5017584;28;1598;-65
2021/09/03 09:16:47;;;;;;;;;;;;;;;20.14;66.14;101984.16;5017988;28;1006;-62
2021/09/03 09:19:12;;;;;;;;;;;;;;;20.05;66.77;101986.69;5017406;28;1824;-65
2021/09/03 09:21:37;;;;;;;;;;;;;;;20.08;66.33;101988.25;5016632;28;1838;-67
2021/09/03 09:24:03;;;;;;;;;;;;;;;20.16;65.73;101990.28;5017071;28;937;-65
2021/09/03 09:26:28;;;;;;;;;;;;;;;20.17;66.25;101989.31;5017518;28;854;-67
2021/09/03 09:28:53;;;;;;;;;;;;;;;20.08;66.10;101985.53;5017213;28;1996;-68
2021/09/03 09:31:18;;;;;;;;;;;;;;;20.10;65.92;101991.69;5017005;28;1616;-63
2021/09/03 09:33:43;;;;;;;;;;;;;;;20.14;66.26;101993.13;5017290;28;1801;-62
2021/09/03 09:36:08;;;;;;;;;;;;;;;20.23;65.89;101997.75;5017158;28;1014;-67
2021/09/03 09:38:33;;;;;;;;;;;;;;;20.24;66.42;101994.06;5017032;28;1995;-65
2021/09/03 09:40:58;;;;;;;;;;;;;;;20.22;66.85;101995.19;5017166;28;855;-66
2021/09/03 09:43:23;;;;;;;;;;;;;;;20.24;67.30;101991.34;5017014;28;907;-71
2021/09/03 09:45:48;;;;;;;;;;;;;;;20.25;66.90;101984.06;5015955;28;840;-70
2021/09/03 09:48:14;;;;;;;;;;;;;;;20.22;67.13;101990.63;5017058;28;2063;-64
2021/09/03 09:50:41;;;;;;;;;;;;;;;20.25;67.01;101978.66;5016769;28;1976;-67
2021/09/03 09:53:06;;;;;;;;;;;;;;;20.27;67.51;101980.22;5017390;28;1971;-68
2021/09/03 09:55:31;;;;;;;;;;;;;;;20.22;66.99;101978.94;5016555;28;1065;-67
2021/09/03 09:57:56;;;;;;;;;;;;;;;20.11;66.38;101982.56;5016748;28;927;-68
2021/09/03 10:00:21;;;;;;;;;;;;;;;20.08;66.50;101972.00;5016057;28;1996;-66
2021/09/03 10:02:46;;;;;;;;;;;;;;;20.08;65.97;101964.75;5016300;28;1604;-66
2021/09/03 10:05:11;;;;;;;;;;;;;;;20.15;67.27;101961.50;5026713;28;1439;-67
2021/09/03 10:07:36;;;;;;;;;;;;;;;19.96;68.98;101963.13;5033417;28;1971;-66
2021/09/03 10:10:01;;;;;;;;;;;;;;;19.99;66.38;101959.28;5018773;28;1987;-67
2021/09/03 10:12:26;;;;;;;;;;;;;;;20.07;67.19;101959.47;5015936;28;1450;-66
2021/09/03 10:14:52;;;;;;;;;;;;;;;20.14;67.15;101963.34;5015991;28;1014;-66
2021/09/03 10:17:17;;;;;;;;;;;;;;;20.11;66.52;101960.91;5015430;28;1679;-67
2021/09/03 10:19:42;;;;;;;;;;;;;;;20.10;66.63;101959.19;5014677;28;1631;-66
2021/09/03 10:22:07;;;;;;;;;;;;;;;20.07;67.40;101957.63;5016349;28;954;-66
2021/09/03 10:24:32;;;;;;;;;;;;;;;20.10;67.10;101954.63;5014928;28;1675;-66
2021/09/03 10:26:58;;;;;;;;;;;;;;;19.99;67.32;101945.75;5015128;28;1598;-66
2021/09/03 10:29:23;;;;;;;;;;;;;;;19.96;67.35;101956.84;5015230;28;1907;-67
2021/09/03 10:31:48;;;;;;;;;;;;;;;19.92;67.04;101948.13;5016201;28;884;-66
2021/09/03 10:34:13;;;;;;;;;;;;;;;19.92;67.62;101948.13;5016169;28;1002;-66
2021/09/03 10:36:38;;;;;;;;;;;;;;;19.93;67.74;101957.09;5015595;28;1980;-67
2021/09/03 10:39:03;;;;;;;;;;;;;;;19.88;66.29;101948.56;5015552;28;1530;-64
2021/09/03 10:41:28;;;;;;;;;;;;;;;19.94;67.03;101956.97;5017633;28;1824;-65
2021/09/03 10:43:53;;;;;;;;;;;;;;;20.02;66.22;101954.47;5025578;28;1462;-65
2021/09/03 10:46:18;;;;;;;;;;;;;;;20.17;66.08;101948.69;5022650;28;1428;-64
2021/09/03 10:48:44;;;;;;;;;;;;;;;20.21;66.52;101942.91;5025705;28;1897;-65
2021/09/03 10:51:09;;;;;;;;;;;;;;;20.22;66.63;101931.06;5019641;28;1730;-65
2021/09/03 10:53:34;;;;;;;;;;;;;;;20.04;66.71;101932.69;5018207;28;1575;-65
2021/09/03 10:56:00;;;;;;;;;;;;;;;20.04;66.82;101932.69;5015210;28;1793;-66
2021/09/03 10:58:25;;;;;;;;;;;;;;;20.16;66.56;101934.31;5015671;28;1650;-67
2021/09/03 11:00:50;;;;;;;;;;;;;;;20.00;67.04;101928.53;5017359;28;1909;-64
2021/09/03 11:03:15;;;;;;;;;;;;;;;20.11;65.61;101928.44;5026702;28;1637;-64
2021/09/03 11:05:40;;;;;;;;;;;;;;;20.28;66.10;101919.69;5027143;28;1369;-65
2021/09/03 11:08:05;;;;;;;;;;;;;;;20.40;66.12;101928.63;5015349;28;1910;-67
2021/09/03 11:10:30;;;;;;;;;;;;;;;20.39;66.53;101921.47;5030732;28;1735;-66
2021/09/03 11:12:55;;;;;;;;;;;;;;;20.41;65.82;101916.78;5018788;28;1585;-66
2021/09/03 11:15:20;;;;;;;;;;;;;;;20.40;66.15;101920.50;5029668;28;1536;-66
2021/09/03 11:17:45;;;;;;;;;;;;;;;20.40;66.37;101907.81;5022820;28;1689;-66
2021/09/03 11:20:10;;;;;;;;;;;;;;;20.28;66.37;101903.44;5031926;28;1668;-68
2021/09/03 11:22:37;;;;;;;;;;;;;;;20.46;65.86;101909.09;5019061;28;1409;-71
2021/09/03 11:25:07;;;;;;;;;;;;;;;20.49;65.27;101910.66;5031576;28;1447;-68
2021/09/03 11:27:32;;;;;;;;;;;;;;;20.54;66.03;101908.41;5019824;28;1886;-67
2021/09/03 11:29:57;;;;;;;;;;;;;;;20.44;66.00;101911.94;5013847;28;1696;-67
2021/09/03 11:32:22;;;;;;;;;;;;;;;20.44;65.92;101903.81;5014182;28;1659;-67
2021/09/03 11:34:50;;;;;;;;;;;;;;;20.33;66.16;101901.19;5014379;28;1725;-65
2021/09/03 11:37:15;;;;;;;;;;;;;;;20.33;66.82;101900.34;5015496;28;835;-64
2021/09/03 11:39:40;;;;;;;;;;;;;;;20.42;66.07;101900.38;5014121;28;871;-66
2021/09/03 11:42:05;;;;;;;;;;;;;;;20.53;65.99;101893.16;5014967;28;1073;-68
2021/09/03 11:44:30;;;;;;;;;;;;;;;20.50;66.54;101897.00;5014670;28;1895;-67
2021/09/03 11:46:55;;;;;;;;;;;;;;;20.51;65.81;101893.28;5014499;28;1607;-66
2021/09/03 11:49:20;;;;;;;;;;;;;;;20.59;65.89;101889.91;5014606;28;1953;-65
2021/09/03 11:51:45;;;;;;;;;;;;;;;20.61;65.51;101885.19;5014762;28;1745;-67
2021/09/03 11:54:10;;;;;;;;;;;;;;;20.71;66.08;101889.63;5014864;28;856;-70
2021/09/03 11:56:35;;;;;;;;;;;;;;;20.51;66.12;101895.16;5014989;28;2107;-68
2021/09/03 11:59:00;;;;;;;;;;;;;;;20.49;65.71;101883.59;5015286;28;938;-68
2021/09/03 12:01:25;;;;;;;;;;;;;;;20.62;65.64;101892.31;5014729;28;1086;-67
2021/09/03 12:03:58;;;;;;;;;;;;;;;20.69;65.83;101882.66;5013891;28;1001;-69
2021/09/03 12:06:24;;;;;;;;;;;;;;;20.76;65.52;101881.09;5014011;28;1614;-66
2021/09/03 12:08:49;;;;;;;;;;;;;;;20.72;65.36;101883.22;5012581;28;1906;-68
2021/09/03 12:11:16;;;;;;;;;;;;;;;20.72;65.41;101871.53;5013739;28;1742;-69
2021/09/03 12:13:41;;;;;;;;;;;;;;;20.67;65.48;101873.78;5013818;28;1676;-69
2021/09/03 12:16:06;;;;;;;;;;;;;;;20.52;65.47;101867.94;5013317;28;1792;-65
2021/09/03 12:18:31;;;;;;;;;;;;;;;20.68;66.00;101868.25;5026992;28;1574;-66
2021/09/03 12:20:56;;;;;;;;;;;;;;;20.63;65.38;101866.94;5029583;28;2007;-66
2021/09/03 12:23:22;;;;;;;;;;;;;;;20.67;65.41;101865.66;5018726;28;1640;-70
2021/09/03 12:25:47;;;;;;;;;;;;;;;20.72;65.10;101866.13;5014255;28;1440;-63
2021/09/03 12:28:12;;;;;;;;;;;;;;;20.80;65.62;101858.13;5022290;28;1898;-67
2021/09/03 12:30:37;;;;;;;;;;;;;;;20.83;64.26;101857.84;5022625;28;1626;-67
2021/09/03 12:33:02;;;;;;;;;;;;;;;20.79;64.73;101859.13;5017482;28;1658;-65
2021/09/03 12:35:27;;;;;;;;;;;;;;;20.69;64.58;101860.97;5030059;28;1351;-64